createdAt,value
2018-12-01T00:01:34.709Z,100378.59
2018-12-01T00:04:09.359Z,100373.11
2018-12-01T00:06:43.434Z,100379.48
2018-12-01T00:09:17.505Z,100385.27
2018-12-01T00:11:51.978Z,100378.95
2018-12-01T00:14:25.942Z,100380.22
2018-12-01T00:17:00.451Z,100369.34
2018-12-01T00:19:34.981Z,100367.78
2018-12-01T00:22:08.905Z,100366.59
2018-12-01T00:24:42.875Z,100365.91
2018-12-01T00:27:16.792Z,100369.47
2018-12-01T00:29:50.790Z,100364.52
2018-12-01T00:32:24.782Z,100367.59
2018-12-01T00:34:58.904Z,100368.95
2018-12-01T00:37:32.812Z,100369.84
2018-12-01T00:40:10.866Z,100361.05
2018-12-01T00:42:44.836Z,100357.80
2018-12-01T00:45:19.725Z,100368.98
2018-12-01T00:47:54.335Z,100359.72
2018-12-01T00:50:28.318Z,100363.22
2018-12-01T00:53:02.286Z,100367.52
2018-12-01T00:55:36.268Z,100373.13
2018-12-01T00:58:10.192Z,100376.54
2018-12-01T01:00:44.369Z,100380.46
2018-12-01T01:03:18.294Z,100372.87
2018-12-01T01:05:52.238Z,100379.26
2018-12-01T01:08:26.146Z,100371.27
2018-12-01T01:11:00.326Z,100377.22
2018-12-01T01:13:34.255Z,100378.97
2018-12-01T01:16:08.244Z,100380.31
2018-12-01T01:18:42.175Z,100380.34
2018-12-01T01:21:16.116Z,100385.09
2018-12-01T01:23:50.021Z,100390.67
2018-12-01T01:26:24.106Z,100392.04
2018-12-01T01:28:58.007Z,100391.20
2018-12-01T01:31:31.960Z,100395.48
2018-12-01T01:34:06.172Z,100401.83
2018-12-01T01:36:40.213Z,100393.03
2018-12-01T01:39:14.189Z,100400.22
2018-12-01T01:41:48.188Z,100386.30
2018-12-01T01:44:22.154Z,100393.49
2018-12-01T01:46:56.160Z,100383.35
2018-12-01T01:49:30.065Z,100390.60
2018-12-01T01:52:04.053Z,100391.95
2018-12-01T01:54:37.940Z,100389.41
2018-12-01T01:57:12.030Z,100387.30
2018-12-01T01:59:45.948Z,100383.17
2018-12-01T02:02:19.969Z,100381.95
2018-12-01T02:04:53.898Z,100379.01
2018-12-01T02:07:27.899Z,100382.03
2018-12-01T02:10:01.888Z,100377.77
2018-12-01T02:12:35.930Z,100380.28
2018-12-01T02:15:11.084Z,100380.69
2018-12-01T02:17:45.032Z,100381.12
2018-12-01T02:20:19.262Z,100383.22
2018-12-01T02:22:53.285Z,100380.69
2018-12-01T02:25:27.208Z,100380.25
2018-12-01T02:28:01.288Z,100378.14
2018-12-01T02:30:35.287Z,100374.80
2018-12-01T02:33:09.326Z,100379.44
2018-12-01T02:35:43.258Z,100373.09
2018-12-01T02:38:17.254Z,100375.23
2018-12-01T02:40:51.237Z,100370.52
2018-12-01T02:43:25.327Z,100370.98
2018-12-01T02:46:10.186Z,100363.77
2018-12-01T02:48:44.177Z,100359.98
2018-12-01T02:51:18.211Z,100362.14
2018-12-01T02:53:52.202Z,100367.66
2018-12-01T02:56:26.174Z,100362.14
2018-12-01T02:59:00.233Z,100360.50
2018-12-01T03:01:34.212Z,100370.19
2018-12-01T03:04:08.301Z,100367.25
2018-12-01T03:06:42.282Z,100377.81
2018-12-01T03:09:16.453Z,100375.70
2018-12-01T03:11:50.425Z,100371.49
2018-12-01T03:14:24.455Z,100373.17
2018-12-01T03:16:58.487Z,100379.92
2018-12-01T03:19:32.560Z,100377.33
2018-12-01T03:22:06.715Z,100378.22
2018-12-01T03:24:40.724Z,100372.28
2018-12-01T03:27:14.696Z,100375.22
2018-12-01T03:29:48.746Z,100374.77
2018-12-01T03:32:22.729Z,100373.50
2018-12-01T03:34:57.131Z,100380.20
2018-12-01T03:37:31.066Z,100389.52
2018-12-01T03:40:05.987Z,100395.84
2018-12-01T03:42:39.951Z,100390.28
2018-12-01T03:45:18.858Z,100387.69
2018-12-01T03:47:52.852Z,100386.77
2018-12-01T03:50:26.875Z,100381.59
2018-12-01T03:53:00.883Z,100378.98
2018-12-01T03:55:35.381Z,100380.97
2018-12-01T03:58:09.383Z,100382.58
2018-12-01T04:00:43.380Z,100380.81
2018-12-01T04:03:17.334Z,100379.91
2018-12-01T04:05:51.551Z,100382.31
2018-12-01T04:08:25.505Z,100388.97
2018-12-01T04:10:59.518Z,100381.66
2018-12-01T04:13:33.475Z,100382.38
2018-12-01T04:16:07.731Z,100383.22
2018-12-01T04:18:41.758Z,100384.84
2018-12-01T04:21:15.754Z,100384.41
2018-12-01T04:23:49.756Z,100385.20
2018-12-01T04:26:23.767Z,100381.71
2018-12-01T04:28:57.725Z,100388.03
2018-12-01T04:31:31.755Z,100395.66
2018-12-01T04:34:06.290Z,100393.88
2018-12-01T04:36:40.421Z,100397.34
2018-12-01T04:39:14.380Z,100390.09
2018-12-01T04:41:48.473Z,100393.95
2018-12-01T04:44:22.560Z,100389.45
2018-12-01T04:46:56.624Z,100388.09
2018-12-01T04:49:30.597Z,100385.28
2018-12-01T04:52:04.574Z,100383.39
2018-12-01T04:54:38.563Z,100389.62
2018-12-01T04:57:13.076Z,100385.36
2018-12-01T04:59:47.032Z,100389.37
2018-12-01T05:02:21.108Z,100384.23
2018-12-01T05:04:55.123Z,100386.29
2018-12-01T05:07:29.155Z,100382.38
2018-12-01T05:10:03.173Z,100390.16
2018-12-01T05:12:37.497Z,100391.83
2018-12-01T05:15:14.614Z,100398.55
2018-12-01T05:17:48.742Z,100398.88
2018-12-01T05:20:23.685Z,100400.99
2018-12-01T05:22:57.733Z,100391.52
2018-12-01T05:25:31.825Z,100390.69
2018-12-01T05:28:05.929Z,100393.39
2018-12-01T05:30:39.960Z,100394.78
2018-12-01T05:33:14.007Z,100397.61
2018-12-01T05:35:47.992Z,100396.73
2018-12-01T05:38:21.983Z,100397.91
2018-12-01T05:40:56.089Z,100393.23
2018-12-01T05:43:30.065Z,100396.97
2018-12-01T05:46:04.472Z,100391.52
2018-12-01T05:48:38.579Z,100401.55
2018-12-01T05:51:12.560Z,100401.83
2018-12-01T05:53:47.748Z,100403.82
2018-12-01T05:56:21.983Z,100402.21
2018-12-01T05:58:56.294Z,100404.91
2018-12-01T06:01:30.438Z,100409.26
2018-12-01T06:04:04.474Z,100414.21
2018-12-01T06:06:38.456Z,100401.97
2018-12-01T06:09:13.728Z,100406.23
2018-12-01T06:11:49.463Z,100411.72
2018-12-01T06:14:24.019Z,100415.00
2018-12-01T06:16:58.708Z,100410.71
2018-12-01T06:19:33.281Z,100403.07
2018-12-01T06:22:07.374Z,100397.66
2018-12-01T06:24:41.530Z,100399.76
2018-12-01T06:27:15.829Z,100396.20
2018-12-01T06:29:50.280Z,100406.80
2018-12-01T06:32:24.273Z,100407.09
2018-12-01T06:34:58.307Z,100407.80
2018-12-01T06:37:32.339Z,100411.06
2018-12-01T06:40:10.224Z,100413.44
2018-12-01T06:42:44.659Z,100406.22
2018-12-01T06:45:19.238Z,100409.41
2018-12-01T06:47:53.273Z,100417.77
2018-12-01T06:50:27.294Z,100414.00
2018-12-01T06:53:01.280Z,100418.53
2018-12-01T06:55:35.293Z,100420.95
2018-12-01T06:58:09.293Z,100428.05
2018-12-01T07:00:43.266Z,100431.32
2018-12-01T07:03:17.233Z,100430.48
2018-12-01T07:05:51.270Z,100434.20
2018-12-01T07:08:25.238Z,100432.48
2018-12-01T07:10:59.413Z,100431.32
2018-12-01T07:13:33.379Z,100436.73
2018-12-01T07:16:08.036Z,100438.78
2018-12-01T07:18:52.951Z,100432.14
2018-12-01T07:21:27.106Z,100429.52
2018-12-01T07:24:01.175Z,100433.17
2018-12-01T07:26:35.138Z,100439.20
2018-12-01T07:29:09.304Z,100429.60
2018-12-01T07:31:43.307Z,100433.48
2018-12-01T07:34:17.318Z,100436.36
2018-12-01T07:36:51.374Z,100435.72
2018-12-01T07:39:25.331Z,100440.89
2018-12-01T07:41:59.365Z,100450.91
2018-12-01T07:44:33.363Z,100451.70
2018-12-01T07:47:07.609Z,100458.33
2018-12-01T07:49:41.544Z,100455.28
2018-12-01T07:52:15.535Z,100444.78
2018-12-01T07:54:49.539Z,100437.88
2018-12-01T07:57:23.617Z,100438.93
2018-12-01T07:59:57.575Z,100440.52
2018-12-01T08:02:31.578Z,100440.84
2018-12-01T08:05:05.880Z,100434.70
2018-12-01T08:07:40.062Z,100428.69
2018-12-01T08:10:15.175Z,100432.72
2018-12-01T08:12:49.161Z,100430.92
2018-12-01T08:15:24.054Z,100424.98
2018-12-01T08:17:57.280Z,100421.22
2018-12-01T08:20:31.257Z,100425.73
2018-12-01T08:23:05.678Z,100424.91
2018-12-01T08:25:39.622Z,100429.97
2018-12-01T08:28:16.266Z,100431.00
2018-12-01T08:30:50.670Z,100436.34
2018-12-01T08:33:24.736Z,100433.70
2018-12-01T08:35:58.717Z,100432.16
2018-12-01T08:38:32.838Z,100432.49
2018-12-01T08:41:06.807Z,100439.77
2018-12-01T08:43:40.815Z,100433.41
2018-12-01T08:46:14.778Z,100427.24
2018-12-01T08:48:48.789Z,100423.58
2018-12-01T08:51:22.793Z,100421.24
2018-12-01T08:53:57.033Z,100410.42
2018-12-01T08:56:30.977Z,100412.45
2018-12-01T08:59:05.041Z,100412.61
2018-12-01T09:01:38.978Z,100420.23
2018-12-01T09:04:13.851Z,100423.80
2018-12-01T09:06:47.037Z,100427.55
2018-12-01T09:09:21.055Z,100427.60
2018-12-01T09:11:54.999Z,100426.71
2018-12-01T09:14:29.021Z,100435.43
2018-12-01T09:17:03.045Z,100435.43
2018-12-01T09:19:37.057Z,100440.86
2018-12-01T09:22:11.033Z,100445.59
2018-12-01T09:24:45.113Z,100440.86
2018-12-01T09:27:22.546Z,100446.13
2018-12-01T09:29:53.175Z,100436.78
2018-12-01T09:32:27.113Z,100437.84
2018-12-01T09:35:01.399Z,100432.27
2018-12-01T09:37:35.440Z,100428.43
2018-12-01T09:40:13.554Z,100428.43
2018-12-01T09:42:47.651Z,100424.44
2018-12-01T09:45:25.564Z,100416.64
2018-12-01T09:47:59.533Z,100420.84
2018-12-01T09:50:33.549Z,100418.73
2018-12-01T09:53:08.039Z,100416.50
2018-12-01T09:55:42.127Z,100411.44
2018-12-01T09:58:16.095Z,100410.36
2018-12-01T10:00:50.192Z,100412.69
2018-12-01T10:03:24.185Z,100411.69
2018-12-01T10:05:58.184Z,100411.47
2018-12-01T10:08:32.184Z,100411.41
2018-12-01T10:11:06.521Z,100407.88
2018-12-01T10:13:41.106Z,100406.13
2018-12-01T10:16:15.307Z,100403.19
2018-12-01T10:18:49.412Z,100408.94
2018-12-01T10:21:23.526Z,100405.10
2018-12-01T10:23:57.492Z,100410.14
2018-12-01T10:26:31.719Z,100414.25
2018-12-01T10:29:05.694Z,100412.39
2018-12-01T10:31:39.713Z,100412.45
2018-12-01T10:34:13.697Z,100420.26
2018-12-01T10:36:47.905Z,100415.97
2018-12-01T10:39:21.910Z,100408.42
2018-12-01T10:41:56.200Z,100410.69
2018-12-01T10:44:30.262Z,100403.72
2018-12-01T10:47:04.287Z,100399.64
2018-12-01T10:49:38.249Z,100392.23
2018-12-01T10:52:12.318Z,100397.70
2018-12-01T10:54:46.303Z,100398.41
2018-12-01T10:57:20.344Z,100402.49
2018-12-01T10:59:54.297Z,100386.90
2018-12-01T11:02:33.516Z,100393.70
2018-12-01T11:05:07.534Z,100393.86
2018-12-01T11:07:41.494Z,100391.23
2018-12-01T11:10:16.469Z,100395.72
2018-12-01T11:12:49.944Z,100394.25
2018-12-01T11:15:23.897Z,100400.17
2018-12-01T11:17:57.938Z,100397.96
2018-12-01T11:20:32.014Z,100402.09
2018-12-01T11:23:06.540Z,100404.59
2018-12-01T11:25:40.828Z,100395.63
2018-12-01T11:28:14.941Z,100399.11
2018-12-01T11:30:48.907Z,100393.80
2018-12-01T11:33:22.920Z,100397.29
2018-12-01T11:35:56.912Z,100395.17
2018-12-01T11:38:31.028Z,100387.00
2018-12-01T11:41:05.131Z,100384.19
2018-12-01T11:43:39.224Z,100377.11
2018-12-01T11:46:13.245Z,100370.98
2018-12-01T11:48:47.266Z,100371.34
2018-12-01T11:51:21.240Z,100366.88
2018-12-01T11:53:55.800Z,100364.64
2018-12-01T11:56:29.792Z,100359.39
2018-12-01T11:59:04.021Z,100361.47
2018-12-01T12:01:38.090Z,100364.03
2018-12-01T12:04:12.075Z,100357.53
2018-12-01T12:06:46.271Z,100356.08
2018-12-01T12:09:20.359Z,100356.08
2018-12-01T12:11:54.316Z,100355.41
2018-12-01T12:14:28.311Z,100358.97
2018-12-01T12:17:02.294Z,100357.08
2018-12-01T12:19:36.365Z,100356.36
2018-12-01T12:22:10.317Z,100354.16
2018-12-01T12:24:44.299Z,100351.92
2018-12-01T12:27:18.258Z,100341.41
2018-12-01T12:29:52.545Z,100353.67
2018-12-01T12:32:26.503Z,100349.27
2018-12-01T12:35:00.498Z,100356.13
2018-12-01T12:37:34.389Z,100358.81
2018-12-01T12:40:13.590Z,100359.20
2018-12-01T12:42:47.603Z,100351.29
2018-12-01T12:45:21.705Z,100357.61
2018-12-01T12:47:55.765Z,100351.97
2018-12-01T12:50:29.799Z,100351.47
2018-12-01T12:53:03.747Z,100342.14
2018-12-01T12:55:37.783Z,100346.58
2018-12-01T12:58:11.845Z,100341.95
2018-12-01T13:00:45.938Z,100343.49
2018-12-01T13:03:19.875Z,100341.41
2018-12-01T13:05:53.982Z,100342.23
2018-12-01T13:08:27.981Z,100338.97
2018-12-01T13:11:02.134Z,100328.78
2018-12-01T13:13:36.187Z,100324.28
2018-12-01T13:16:10.254Z,100321.83
2018-12-01T13:18:44.199Z,100313.09
2018-12-01T13:21:18.296Z,100306.14
2018-12-01T13:23:52.385Z,100314.97
2018-12-01T13:26:26.409Z,100308.26
2018-12-01T13:29:00.392Z,100312.59
2018-12-01T13:31:35.368Z,100323.19
2018-12-01T13:34:09.388Z,100329.91
2018-12-01T13:36:43.479Z,100329.89
2018-12-01T13:39:17.461Z,100325.50
2018-12-01T13:41:51.446Z,100327.59
2018-12-01T13:44:25.399Z,100328.58
2018-12-01T13:46:59.508Z,100330.05
2018-12-01T13:49:33.580Z,100324.73
2018-12-01T13:52:07.667Z,100333.09
2018-12-01T13:54:41.835Z,100332.55
2018-12-01T13:57:15.887Z,100333.61
2018-12-01T13:59:49.870Z,100328.93
2018-12-01T14:02:23.868Z,100333.80
2018-12-01T14:04:57.835Z,100326.40
2018-12-01T14:07:31.827Z,100324.19
2018-12-01T14:10:11.534Z,100322.08
2018-12-01T14:12:46.875Z,100320.19
2018-12-01T14:15:23.565Z,100314.96
2018-12-01T14:17:57.718Z,100316.56
2018-12-01T14:20:31.670Z,100315.86
2018-12-01T14:23:05.826Z,100326.41
2018-12-01T14:25:39.910Z,100319.59
2018-12-01T14:28:14.091Z,100313.61
2018-12-01T14:30:48.028Z,100319.50
2018-12-01T14:33:22.125Z,100322.36
2018-12-01T14:35:56.086Z,100319.69
2018-12-01T14:38:30.079Z,100323.75
2018-12-01T14:41:04.105Z,100321.22
2018-12-01T14:43:38.078Z,100324.07
2018-12-01T14:46:12.087Z,100319.55
2018-12-01T14:48:46.073Z,100316.72
2018-12-01T14:51:20.037Z,100319.20
2018-12-01T14:53:54.056Z,100315.06
2018-12-01T14:56:28.129Z,100307.41
2018-12-01T14:59:02.233Z,100311.49
2018-12-01T15:01:36.205Z,100306.73
2018-12-01T15:04:10.289Z,100312.38
2018-12-01T15:06:44.247Z,100309.14
2018-12-01T15:09:18.238Z,100311.08
2018-12-01T15:11:52.169Z,100313.51
2018-12-01T15:14:26.170Z,100309.50
2018-12-01T15:17:00.136Z,100302.33
2018-12-01T15:19:34.147Z,100296.41
2018-12-01T15:22:08.126Z,100291.87
2018-12-01T15:24:42.136Z,100293.75
2018-12-01T15:27:16.101Z,100294.16
2018-12-01T15:29:50.106Z,100297.31
2018-12-01T15:32:24.149Z,100293.62
2018-12-01T15:34:58.184Z,100297.77
2018-12-01T15:37:32.250Z,100298.82
2018-12-01T15:40:10.175Z,100296.38
2018-12-01T15:42:44.188Z,100288.78
2018-12-01T15:45:20.178Z,100287.64
2018-12-01T15:47:54.200Z,100284.86
2018-12-01T15:50:28.281Z,100290.11
2018-12-01T15:53:02.260Z,100290.63
2018-12-01T15:55:36.391Z,100285.23
2018-12-01T15:58:10.407Z,100280.39
2018-12-01T16:00:45.019Z,100276.27
2018-12-01T16:03:19.055Z,100271.31
2018-12-01T16:05:53.064Z,100270.25
2018-12-01T16:08:27.058Z,100262.81
2018-12-01T16:11:01.100Z,100270.60
2018-12-01T16:13:35.064Z,100264.41
2018-12-01T16:16:10.113Z,100260.80
2018-12-01T16:18:44.107Z,100260.12
2018-12-01T16:21:18.252Z,100254.77
2018-12-01T16:23:52.313Z,100260.87
2018-12-01T16:26:26.308Z,100249.99
2018-12-01T16:29:00.272Z,100258.64
2018-12-01T16:31:34.390Z,100257.94
2018-12-01T16:34:08.418Z,100256.66
2018-12-01T16:36:43.089Z,100256.34
2018-12-01T16:39:17.074Z,100252.19
2018-12-01T16:41:51.430Z,100254.37
2018-12-01T16:44:25.504Z,100249.87
2018-12-01T16:46:59.511Z,100234.63
2018-12-01T16:49:33.575Z,100230.55
2018-12-01T16:52:07.897Z,100234.01
2018-12-01T16:54:41.893Z,100222.36
2018-12-01T16:57:15.937Z,100210.69
2018-12-01T16:59:49.918Z,100205.78
2018-12-01T17:02:23.950Z,100198.30
2018-12-01T17:04:57.897Z,100194.27
2018-12-01T17:07:32.564Z,100191.05
2018-12-01T17:10:11.312Z,100196.16
2018-12-01T17:12:46.083Z,100194.22
2018-12-01T17:15:21.028Z,100192.06
2018-12-01T17:17:55.077Z,100189.14
2018-12-01T17:20:29.046Z,100194.13
2018-12-01T17:23:03.236Z,100192.41
2018-12-01T17:25:37.237Z,100189.86
2018-12-01T17:28:13.115Z,100194.11
2018-12-01T17:30:47.186Z,100201.38
2018-12-01T17:33:21.239Z,100204.63
2018-12-01T17:35:55.252Z,100197.05
2018-12-01T17:38:29.322Z,100199.48
2018-12-01T17:41:11.268Z,100197.28
2018-12-01T17:43:50.859Z,100193.00
2018-12-01T17:46:24.816Z,100201.47
2018-12-01T17:48:58.926Z,100204.68
2018-12-01T17:51:32.902Z,100208.33
2018-12-01T17:54:11.984Z,100207.94
2018-12-01T17:56:46.031Z,100204.62
2018-12-01T17:59:20.279Z,100203.23
2018-12-01T18:01:54.273Z,100200.55
2018-12-01T18:04:28.234Z,100193.85
2018-12-01T18:07:02.183Z,100200.48
2018-12-01T18:09:36.188Z,100189.36
2018-12-01T18:12:10.366Z,100191.02
2018-12-01T18:14:44.449Z,100191.08
2018-12-01T18:17:18.423Z,100194.52
2018-12-01T18:19:52.584Z,100192.86
2018-12-01T18:22:26.557Z,100192.91
2018-12-01T18:25:00.564Z,100183.56
2018-12-01T18:27:34.546Z,100174.36
2018-12-01T18:30:13.022Z,100179.91
2018-12-01T18:32:48.020Z,100178.75
2018-12-01T18:35:22.006Z,100177.52
2018-12-01T18:37:56.020Z,100178.46
2018-12-01T18:40:31.432Z,100175.19
2018-12-01T18:43:07.081Z,100168.05
2018-12-01T18:45:46.208Z,100158.48
2018-12-01T18:48:21.059Z,100144.47
2018-12-01T18:50:56.180Z,100146.90
2018-12-01T18:53:30.379Z,100140.51
2018-12-01T18:56:04.400Z,100136.13
2018-12-01T18:58:41.237Z,100136.27
2018-12-01T19:01:15.863Z,100129.89
2018-12-01T19:03:50.272Z,100137.03
2018-12-01T19:06:24.779Z,100129.61
2018-12-01T19:08:58.751Z,100136.08
2018-12-01T19:11:32.849Z,100129.88
2018-12-01T19:14:08.312Z,100129.44
2018-12-01T19:16:42.484Z,100135.81
2018-12-01T19:19:16.473Z,100128.84
2018-12-01T19:21:50.541Z,100114.42
2018-12-01T19:24:25.631Z,100107.87
2018-12-01T19:26:59.813Z,100101.73
2018-12-01T19:29:35.042Z,100096.62
2018-12-01T19:32:09.227Z,100099.86
2018-12-01T19:34:43.240Z,100096.28
2018-12-01T19:37:17.243Z,100093.36
2018-12-01T19:39:51.207Z,100091.17
2018-12-01T19:42:25.204Z,100096.80
2018-12-01T19:44:59.191Z,100096.61
2018-12-01T19:47:33.214Z,100090.75
2018-12-01T19:50:13.166Z,100095.26
2018-12-01T19:52:47.494Z,100087.86
2018-12-01T19:55:23.100Z,100078.30
2018-12-01T19:57:58.032Z,100076.72
2018-12-01T20:00:33.108Z,100077.79
2018-12-01T20:03:09.738Z,100074.34
2018-12-01T20:05:44.780Z,100064.51
2018-12-01T20:08:19.947Z,100060.69
2018-12-01T20:10:58.167Z,100055.79
2018-12-01T20:13:44.827Z,100056.09
2018-12-01T20:16:24.198Z,100052.64
2018-12-01T20:18:58.307Z,100048.38
2018-12-01T20:21:32.352Z,100041.05
2018-12-01T20:24:07.807Z,100044.33
2018-12-01T20:26:42.893Z,100037.06
2018-12-01T20:29:16.988Z,100029.63
2018-12-01T20:31:50.958Z,100025.25
2018-12-01T20:34:25.082Z,100027.69
2018-12-01T20:37:02.548Z,100012.06
2018-12-01T20:39:39.618Z,100010.61
2018-12-01T20:42:13.581Z,100008.92
2018-12-01T20:44:47.625Z,99996.02
2018-12-01T20:47:21.585Z,99992.33
2018-12-01T20:49:55.643Z,99990.52
2018-12-01T20:52:29.681Z,99986.39
2018-12-01T20:55:04.029Z,99980.92
2018-12-01T20:57:38.001Z,99978.50
2018-12-01T21:00:13.160Z,99972.13
2018-12-01T21:02:47.122Z,99962.83
2018-12-01T21:05:23.355Z,99966.55
2018-12-01T21:08:02.097Z,99959.57
2018-12-01T21:10:33.270Z,99955.86
2018-12-01T21:13:07.604Z,99962.27
2018-12-01T21:15:41.884Z,99958.12
2018-12-01T21:18:15.829Z,99950.58
2018-12-01T21:20:49.807Z,99952.80
2018-12-01T21:23:23.855Z,99943.77
2018-12-01T21:25:57.870Z,99942.14
2018-12-01T21:28:31.872Z,99940.56
2018-12-01T21:31:06.900Z,99937.69
2018-12-01T21:33:41.299Z,99931.30
2018-12-01T21:36:16.414Z,99918.53
2018-12-01T21:38:51.107Z,99924.69
2018-12-01T21:41:25.168Z,99917.37
2018-12-01T21:43:59.176Z,99922.27
2018-12-01T21:46:33.259Z,99923.25
2018-12-01T21:49:08.282Z,99917.20
2018-12-01T21:51:42.295Z,99908.85
2018-12-01T21:54:16.353Z,99911.56
2018-12-01T21:56:50.354Z,99901.19
2018-12-01T21:59:24.465Z,99900.75
2018-12-01T22:01:58.471Z,99901.20
2018-12-01T22:04:32.446Z,99892.70
2018-12-01T22:07:06.442Z,99888.14
2018-12-01T22:09:40.437Z,99885.53
2018-12-01T22:12:14.660Z,99876.48
2018-12-01T22:14:48.599Z,99870.39
2018-12-01T22:17:22.639Z,99868.09
2018-12-01T22:19:56.607Z,99860.17
2018-12-01T22:22:30.584Z,99859.09
2018-12-01T22:25:04.622Z,99854.58
2018-12-01T22:27:38.773Z,99850.18
2018-12-01T22:30:17.587Z,99847.02
2018-12-01T22:32:54.252Z,99842.38
2018-12-01T22:35:29.491Z,99846.22
2018-12-01T22:38:03.452Z,99842.80
2018-12-01T22:40:37.699Z,99847.63
2018-12-01T22:43:11.837Z,99835.81
2018-12-01T22:45:45.823Z,99830.95
2018-12-01T22:48:21.465Z,99829.52
2018-12-01T22:50:55.438Z,99823.74
2018-12-01T22:53:29.483Z,99823.10
2018-12-01T22:56:03.663Z,99823.22
2018-12-01T22:58:37.682Z,99814.98
2018-12-01T23:01:11.675Z,99808.13
2018-12-01T23:03:45.665Z,99811.80
2018-12-01T23:06:19.687Z,99813.89
2018-12-01T23:08:53.875Z,99813.33
2018-12-01T23:11:27.812Z,99812.91
2018-12-01T23:14:01.918Z,99812.63
2018-12-01T23:16:35.888Z,99811.98
2018-12-01T23:19:10.248Z,99802.47
2018-12-01T23:21:44.393Z,99797.20
2018-12-01T23:24:18.416Z,99793.11
2018-12-01T23:26:52.524Z,99796.57
2018-12-01T23:29:26.569Z,99787.59
2018-12-01T23:32:00.527Z,99789.70
2018-12-01T23:34:34.596Z,99787.08
2018-12-01T23:37:08.561Z,99781.03
2018-12-01T23:39:42.661Z,99781.97
2018-12-01T23:42:16.687Z,99777.93
2018-12-01T23:44:50.970Z,99767.94
2018-12-01T23:47:25.070Z,99764.77
2018-12-01T23:49:59.162Z,99759.14
2018-12-01T23:52:33.257Z,99752.38
2018-12-01T23:55:10.515Z,99752.75
2018-12-01T23:57:44.560Z,99744.53
